createdAt,value
2022-10-01T00:12:46.585Z,1320.09302
2022-10-01T00:27:48.951Z,1057.87048
2022-10-01T00:42:51.568Z,844.14111
2022-10-01T00:57:53.848Z,523.54712
2022-10-01T01:12:56.091Z,295.4494
2022-10-01T01:27:58.612Z,96.98643
2022-10-01T01:43:00.999Z,19.75649
2022-10-01T01:58:03.228Z,0.89802
2022-10-01T02:13:05.631Z,0
2022-10-01T02:28:07.972Z,0
2022-10-01T02:43:10.335Z,0
2022-10-01T02:58:12.682Z,0
2022-10-01T03:13:15.184Z,0
2022-10-01T03:28:17.647Z,0
2022-10-01T03:43:19.960Z,0
2022-10-01T03:58:22.194Z,0
2022-10-01T04:13:24.564Z,0
2022-10-01T04:28:26.923Z,0
2022-10-01T04:43:29.633Z,0
2022-10-01T04:58:31.933Z,0
2022-10-01T05:13:34.180Z,0
2022-10-01T05:28:36.612Z,0
2022-10-01T05:43:39.057Z,0
2022-10-01T05:58:41.398Z,0
2022-10-01T06:13:43.649Z,0
2022-10-01T06:28:45.975Z,0
2022-10-01T06:43:48.261Z,0
2022-10-01T06:58:50.556Z,0
2022-10-01T07:13:54.727Z,0
2022-10-01T07:28:57.340Z,0
2022-10-01T07:43:59.628Z,0
2022-10-01T07:59:02.005Z,0
2022-10-01T08:14:04.350Z,0
2022-10-01T08:29:06.701Z,0
2022-10-01T08:44:09.035Z,0
2022-10-01T08:59:11.345Z,0
2022-10-01T09:14:13.791Z,0
2022-10-01T09:29:16.067Z,0
2022-10-01T09:44:19.020Z,0
2022-10-01T09:59:21.435Z,0
2022-10-01T10:14:23.708Z,0
2022-10-01T10:29:26.003Z,0
2022-10-01T10:44:28.376Z,0
2022-10-01T10:59:30.720Z,0
2022-10-01T11:14:33.007Z,0
2022-10-01T11:29:35.372Z,0
2022-10-01T11:44:37.660Z,0
2022-10-01T11:59:39.904Z,0
2022-10-01T12:14:42.256Z,0
2022-10-01T12:29:44.557Z,0
2022-10-01T12:44:46.832Z,0
2022-10-01T12:59:49.107Z,0
2022-10-01T13:14:51.423Z,0
2022-10-01T13:29:53.729Z,8.0822
2022-10-01T13:44:55.982Z,70.94378
2022-10-01T13:59:58.251Z,268.50873
2022-10-01T14:15:00.545Z,581.02057
2022-10-01T14:30:02.836Z,1188.98181
2022-10-01T14:45:05.151Z,2061.85962
2022-10-01T15:00:07.526Z,5115.13623
2022-10-01T15:15:09.819Z,5564.14746
2022-10-01T15:30:12.151Z,5730.28125
2022-10-01T15:45:14.415Z,8240.25391
2022-10-01T16:00:16.887Z,14193.24512
2022-10-01T16:15:19.415Z,15357.08203
2022-10-01T16:30:21.774Z,5673.70605
2022-10-01T16:45:24.097Z,10171.00293
2022-10-01T17:00:26.349Z,6478.33398
2022-10-01T17:15:28.743Z,5633.29492
2022-10-01T17:30:31.039Z,5384.54297
2022-10-01T17:45:33.458Z,5420.46387
2022-10-01T18:00:35.806Z,5280.37207
2022-10-01T18:15:38.083Z,5420.46387
2022-10-01T18:30:40.401Z,5297.43457
2022-10-01T18:45:42.788Z,5329.76318
2022-10-01T19:00:45.328Z,5492.30566
2022-10-01T19:15:47.662Z,5526.43018
2022-10-01T19:30:49.959Z,5550.67676
2022-10-01T19:45:52.261Z,5813.79736
2022-10-01T20:00:54.620Z,5931.43848
2022-10-01T20:15:57.211Z,6126.30908
2022-10-01T20:30:59.543Z,6159.53613
2022-10-01T20:46:01.968Z,6214.31543
2022-10-01T21:01:04.482Z,6211.62158
2022-10-01T21:16:07.061Z,6302.32178
2022-10-01T21:31:09.408Z,6211.62158
2022-10-01T21:46:11.816Z,6064.3457
2022-10-01T22:01:14.184Z,5876.65918
2022-10-01T22:16:16.606Z,5663.82764
2022-10-01T22:31:18.994Z,5271.39209
2022-10-01T22:46:21.287Z,4966.06445
2022-10-01T23:01:23.747Z,4828.66699
2022-10-01T23:16:26.217Z,4645.47021
2022-10-01T23:31:28.750Z,4532.31934
2022-10-01T23:46:31.188Z,4344.63281
